Time;durP1;ratioP1;P1;durP2;ratioP2;P2;SDS_P1;SDS_P2;PMS_P1;PMS_P2;Temp;Humidity;BMP_temperature;BMP_pressure;BME280_temperature;BME280_humidity;BME280_pressure;Samples;Min_cycle;Max_cycle;Signal;HPM_P1;HPM_P2
2023/06/01 00:02:06;;;;;;;17.77;8.65;;;12.20;82.40;;;;;;5014720;28;20091;-84
2023/06/01 00:04:32;;;;;;;17.38;9.45;;;12.20;82.70;;;;;;5017475;28;20088;-82
2023/06/01 00:07:01;;;;;;;19.30;8.38;;;12.20;82.70;;;;;;5025811;28;20048;-83
2023/06/01 00:09:27;;;;;;;18.70;8.73;;;12.20;83.00;;;;;;5019055;28;20501;-83
2023/06/01 00:11:52;;;;;;;16.75;8.27;;;12.20;83.00;;;;;;5018703;28;20049;-84
2023/06/01 00:14:18;;;;;;;18.60;7.18;;;12.20;83.40;;;;;;5002403;28;20040;-83
2023/06/01 00:16:45;;;;;;;15.18;7.88;;;12.20;83.20;;;;;;5002248;28;20056;-85
2023/06/01 00:19:11;;;;;;;13.07;7.60;;;12.20;83.40;;;;;;5018664;28;20072;-83
2023/06/01 00:21:37;;;;;;;11.75;6.85;;;12.20;83.30;;;;;;5002352;28;20045;-84
2023/06/01 00:24:03;;;;;;;12.63;6.75;;;12.20;83.30;;;;;;5035259;28;20382;-84
2023/06/01 00:26:31;;;;;;;16.08;6.95;;;12.20;83.50;;;;;;5005725;28;20045;-84
2023/06/01 00:28:58;;;;;;;13.88;6.45;;;12.20;83.30;;;;;;5022136;28;20123;-83
2023/06/01 00:31:24;;;;;;;10.98;5.28;;;12.20;82.90;;;;;;5038242;28;20045;-84
2023/06/01 00:33:50;;;;;;;11.05;5.82;;;12.20;83.10;;;;;;5022003;28;20048;-84
2023/06/01 00:36:16;;;;;;;12.25;5.80;;;12.10;82.90;;;;;;5037998;28;20068;-84
2023/06/01 00:38:42;;;;;;;12.98;5.43;;;12.20;82.80;;;;;;5037959;28;20134;-84
2023/06/01 00:41:07;;;;;;;11.00;5.88;;;12.10;82.80;;;;;;5021622;28;20051;-82
2023/06/01 00:43:33;;;;;;;12.57;5.60;;;12.10;82.80;;;;;;5037906;28;20047;-83
2023/06/01 00:45:59;;;;;;;13.10;6.00;;;12.10;82.90;;;;;;4988896;28;20119;-84
2023/06/01 00:48:25;;;;;;;15.23;6.40;;;12.10;82.90;;;;;;5021342;28;20179;-81
2023/06/01 00:50:51;;;;;;;11.73;5.13;;;12.10;83.00;;;;;;5037858;28;20535;-82
2023/06/01 00:53:18;;;;;;;11.65;6.00;;;12.10;83.00;;;;;;5037827;28;20040;-82
2023/06/01 00:55:45;;;;;;;9.70;6.53;;;12.10;82.80;;;;;;5004964;28;20485;-83
2023/06/01 00:58:12;;;;;;;12.00;5.85;;;12.10;82.60;;;;;;5001362;28;20057;-84
2023/06/01 01:00:38;;;;;;;11.20;5.38;;;12.00;82.80;;;;;;5018074;28;20120;-83
2023/06/01 01:03:08;;;;;;;12.15;5.40;;;12.10;82.80;;;;;;5001434;28;20554;-84
2023/06/01 01:05:36;;;;;;;11.75;5.70;;;12.00;82.90;;;;;;5001451;28;20371;-84
2023/06/01 01:08:14;;;;;;;11.77;6.13;;;12.10;82.90;;;;;;5001289;28;20059;-83
2023/06/01 01:10:52;;;;;;;8.85;5.70;;;12.00;82.80;;;;;;5017726;28;20095;-82
2023/06/01 01:13:27;;;;;;;13.00;6.32;;;12.00;83.00;;;;;;5001401;28;20462;-85
2023/06/01 01:15:59;;;;;;;13.48;6.50;;;12.00;83.20;;;;;;5000580;28;20044;-84
2023/06/01 01:18:46;;;;;;;11.98;6.30;;;12.00;83.30;;;;;;5017477;28;20041;-84
2023/06/01 01:21:27;;;;;;;11.55;6.63;;;12.00;83.50;;;;;;5017571;28;20041;-82
2023/06/01 01:24:21;;;;;;;10.38;6.82;;;12.00;83.30;;;;;;5001182;28;20482;-82
2023/06/01 01:27:24;;;;;;;13.48;6.85;;;12.00;83.50;;;;;;5017341;28;20053;-81
2023/06/01 01:29:55;;;;;;;17.85;6.75;;;12.00;83.70;;;;;;5019744;28;20536;-82
2023/06/01 01:32:23;;;;;;;15.48;7.40;;;12.00;83.70;;;;;;5020982;28;20072;-81
2023/06/01 01:34:51;;;;;;;11.50;7.35;;;12.00;83.50;;;;;;5004109;28;20033;-80
2023/06/01 01:37:16;;;;;;;15.65;6.88;;;12.00;83.70;;;;;;5004202;28;20037;-82
2023/06/01 01:39:42;;;;;;;16.17;7.45;;;12.00;83.70;;;;;;5036777;28;20089;-80
2023/06/01 01:42:08;;;;;;;13.63;8.40;;;12.00;83.60;;;;;;5053921;28;20045;-82
2023/06/01 01:44:34;;;;;;;12.13;7.75;;;12.00;83.40;;;;;;5014741;28;20033;-83
2023/06/01 01:47:23;;;;;;;15.25;6.72;;;12.00;83.20;;;;;;5053390;28;20115;-82
2023/06/01 01:49:55;;;;;;;14.07;6.57;;;12.00;83.20;;;;;;5036784;28;20041;-81
2023/06/01 01:52:51;;;;;;;12.85;7.32;;;12.00;83.30;;;;;;5053590;28;20504;-82
2023/06/01 01:55:23;;;;;;;11.55;7.20;;;12.00;83.10;;;;;;5041062;28;20441;-82
2023/06/01 01:57:52;;;;;;;11.98;7.72;;;12.00;83.10;;;;;;5020589;28;20045;-81
2023/06/01 02:00:19;;;;;;;18.05;8.60;;;12.00;82.90;;;;;;5052096;28;20800;-82
2023/06/01 02:02:47;;;;;;;15.25;7.85;;;12.00;82.70;;;;;;5036486;28;20056;-83
2023/06/01 02:05:13;;;;;;;15.45;7.03;;;11.90;82.70;;;;;;5036300;28;20063;-83
2023/06/01 02:07:39;;;;;;;11.18;7.25;;;11.90;82.90;;;;;;5036451;28;20045;-81
2023/06/01 02:10:05;;;;;;;14.32;7.65;;;12.00;82.90;;;;;;5053094;28;20045;-82
2023/06/01 02:12:31;;;;;;;12.02;7.47;;;11.90;82.70;;;;;;5020378;28;20040;-83
2023/06/01 02:14:57;;;;;;;12.52;6.43;;;11.90;82.90;;;;;;5053154;28;20427;-80
2023/06/01 02:17:25;;;;;;;14.10;7.00;;;12.00;83.00;;;;;;5003649;28;20048;-81
2023/06/01 02:19:50;;;;;;;15.85;6.57;;;11.90;82.80;;;;;;5000062;28;20044;-82
2023/06/01 02:22:16;;;;;;;12.15;5.78;;;11.90;82.90;;;;;;5000317;28;20132;-81
2023/06/01 02:24:42;;;;;;;19.92;6.47;;;11.90;82.80;;;;;;4983899;28;20124;-84
2023/06/01 02:27:08;;;;;;;12.25;6.00;;;11.80;83.00;;;;;;4982840;28;20037;-82
2023/06/01 02:29:33;;;;;;;9.90;6.20;;;11.90;83.10;;;;;;5016301;28;20044;-82
2023/06/01 02:31:59;;;;;;;9.45;6.13;;;11.90;83.20;;;;;;4983700;28;20048;-82
2023/06/01 02:34:25;;;;;;;10.07;6.05;;;11.90;83.10;;;;;;5014798;28;20049;-83
2023/06/01 02:36:55;;;;;;;11.75;6.18;;;11.80;83.00;;;;;;5019598;28;20076;-82
2023/06/01 02:39:22;;;;;;;9.98;5.63;;;11.80;82.70;;;;;;5035802;28;20045;-82
2023/06/01 02:41:47;;;;;;;7.07;4.57;;;11.80;82.80;;;;;;5035845;28;20473;-82
2023/06/01 02:44:13;;;;;;;10.55;5.38;;;11.70;82.70;;;;;;5019440;28;20123;-83
2023/06/01 02:46:39;;;;;;;10.10;5.30;;;11.80;82.70;;;;;;5019291;28;20041;-82
2023/06/01 02:49:05;;;;;;;11.13;5.25;;;11.80;82.70;;;;;;5035875;28;20123;-83
2023/06/01 02:51:31;;;;;;;11.63;4.40;;;11.80;82.80;;;;;;5003000;28;20463;-82
2023/06/01 02:53:57;;;;;;;11.77;5.60;;;11.80;82.70;;;;;;5019447;28;20040;-82
2023/06/01 02:56:22;;;;;;;9.07;4.60;;;11.80;82.30;;;;;;5019301;28;20397;-83
2023/06/01 02:58:48;;;;;;;7.38;4.57;;;11.90;82.30;;;;;;5034901;28;20041;-83
2023/06/01 03:01:14;;;;;;;9.50;4.80;;;11.80;82.30;;;;;;5035131;28;20045;-83
2023/06/01 03:03:41;;;;;;;13.35;5.85;;;11.80;82.50;;;;;;5035207;28;20111;-82
2023/06/01 03:06:08;;;;;;;12.93;4.80;;;11.80;82.50;;;;;;5023287;28;20516;-82
2023/06/01 03:08:35;;;;;;;10.52;4.55;;;11.80;82.90;;;;;;5015760;28;20056;-83
2023/06/01 03:11:00;;;;;;;7.50;4.00;;;11.80;82.90;;;;;;5015732;28;20052;-82
2023/06/01 03:13:26;;;;;;;7.82;4.13;;;11.80;83.00;;;;;;5015588;28;20132;-83
2023/06/01 03:15:52;;;;;;;10.52;4.95;;;11.80;83.00;;;;;;4999436;28;20042;-83
2023/06/01 03:18:17;;;;;;;12.55;5.05;;;11.80;83.00;;;;;;4998560;28;20513;-83
2023/06/01 03:20:43;;;;;;;13.25;4.80;;;11.80;83.00;;;;;;4998462;28;20128;-83
2023/06/01 03:23:09;;;;;;;11.15;5.00;;;11.80;83.20;;;;;;5005648;28;20048;-82
2023/06/01 03:25:35;;;;;;;11.15;4.70;;;11.80;83.30;;;;;;5014833;28;20041;-83
2023/06/01 03:28:01;;;;;;;9.68;4.68;;;11.90;83.10;;;;;;4998893;28;20086;-81
2023/06/01 03:30:26;;;;;;;10.93;4.53;;;11.90;83.10;;;;;;4998784;28;20510;-84
2023/06/01 03:32:52;;;;;;;8.98;4.68;;;11.80;83.20;;;;;;4999091;28;20132;-82
2023/06/01 03:35:18;;;;;;;7.57;4.38;;;11.80;83.00;;;;;;4999176;28;20522;-83
2023/06/01 03:37:45;;;;;;;5.68;3.38;;;11.90;83.10;;;;;;5015440;28;20045;-84
2023/06/01 03:40:11;;;;;;;8.18;3.75;;;11.90;82.90;;;;;;5007415;28;20072;-83
2023/06/01 03:42:41;;;;;;;8.32;3.80;;;11.90;82.50;;;;;;5019543;28;20072;-84
2023/06/01 03:45:08;;;;;;;7.00;4.07;;;11.90;82.40;;;;;;5019331;28;20038;-83
2023/06/01 03:47:34;;;;;;;8.95;4.00;;;11.90;82.40;;;;;;5019197;28;20052;-82
2023/06/01 03:50:01;;;;;;;8.95;4.32;;;11.80;82.40;;;;;;5002866;28;20041;-82
2023/06/01 03:52:27;;;;;;;9.48;4.43;;;11.80;82.40;;;;;;5002695;28;20516;-83
2023/06/01 03:54:55;;;;;;;5.80;3.47;;;11.80;82.70;;;;;;5019346;28;20489;-82
2023/06/01 03:57:21;;;;;;;9.32;4.07;;;11.90;82.50;;;;;;5022711;28;20500;-84
2023/06/01 03:59:47;;;;;;;11.27;4.30;;;11.90;82.50;;;;;;4989941;28;20044;-83
2023/06/01 04:02:13;;;;;;;10.15;4.85;;;11.80;82.70;;;;;;4989817;28;20033;-81
2023/06/01 04:04:45;;;;;;;10.35;4.22;;;11.90;82.80;;;;;;5022154;28;20064;-83
2023/06/01 04:07:21;;;;;;;8.32;4.30;;;11.90;82.80;;;;;;5038881;28;20045;-83
2023/06/01 04:09:47;;;;;;;8.20;4.05;;;11.90;83.00;;;;;;5008874;28;20048;-82
2023/06/01 04:12:14;;;;;;;9.50;4.25;;;12.00;82.80;;;;;;5018417;28;20124;-82
2023/06/01 04:14:40;;;;;;;7.60;4.43;;;12.00;82.80;;;;;;5019091;28;20551;-82
2023/06/01 04:17:06;;;;;;;8.20;3.90;;;12.00;82.70;;;;;;5002342;28;20041;-81
2023/06/01 04:19:33;;;;;;;10.88;4.45;;;12.00;82.80;;;;;;5029601;28;20039;-80
2023/06/01 04:21:59;;;;;;;10.98;4.50;;;12.00;82.50;;;;;;5039123;28;20040;-82
2023/06/01 04:24:25;;;;;;;11.85;4.05;;;12.00;82.40;;;;;;5055368;28;20124;-84
2023/06/01 04:26:50;;;;;;;9.20;4.30;;;12.00;82.30;;;;;;5038611;28;20041;-82
2023/06/01 04:29:19;;;;;;;10.77;4.47;;;12.00;82.00;;;;;;5021703;28;20476;-81
2023/06/01 04:31:47;;;;;;;13.40;4.40;;;12.00;82.10;;;;;;5039246;28;20049;-79
2023/06/01 04:34:13;;;;;;;8.50;4.90;;;12.00;82.10;;;;;;5054587;28;20041;-82
2023/06/01 04:36:39;;;;;;;6.35;3.60;;;12.00;82.30;;;;;;5005214;28;20416;-80
2023/06/01 04:39:08;;;;;;;7.18;4.00;;;12.00;82.10;;;;;;5005405;28;20131;-82
2023/06/01 04:41:35;;;;;;;10.07;3.97;;;12.00;81.90;;;;;;5021348;28;20045;-81
2023/06/01 04:44:05;;;;;;;10.52;3.90;;;12.00;81.90;;;;;;5001712;28;20029;-80
2023/06/01 04:46:31;;;;;;;8.25;3.65;;;12.00;81.80;;;;;;5019874;28;20068;-83
2023/06/01 04:48:59;;;;;;;6.97;3.63;;;12.00;81.40;;;;;;5037961;28;20051;-81
2023/06/01 04:51:26;;;;;;;7.45;3.83;;;12.00;81.50;;;;;;5001266;28;20060;-80
2023/06/01 04:53:53;;;;;;;5.95;3.42;;;12.00;81.50;;;;;;5001928;28;20045;-79
2023/06/01 04:56:24;;;;;;;5.47;3.20;;;12.10;81.20;;;;;;5017942;28;20060;-80
2023/06/01 04:58:53;;;;;;;9.45;3.75;;;12.10;81.10;;;;;;5001618;28;20417;-80
2023/06/01 05:01:24;;;;;;;10.90;3.95;;;12.10;81.00;;;;;;5017866;28;20042;-79
2023/06/01 05:03:52;;;;;;;8.10;3.72;;;12.10;81.30;;;;;;5001359;28;20082;-80
2023/06/01 05:06:19;;;;;;;7.30;3.50;;;12.10;81.20;;;;;;5017763;28;20072;-79
2023/06/01 05:08:45;;;;;;;6.82;3.47;;;12.10;81.10;;;;;;5001502;28;20047;-84
2023/06/01 05:11:11;;;;;;;12.80;4.88;;;12.10;81.40;;;;;;5001613;28;20041;-84
2023/06/01 05:13:40;;;;;;;11.90;4.13;;;12.10;81.50;;;;;;5001384;28;20045;-83
2023/06/01 05:16:08;;;;;;;10.00;4.03;;;12.20;81.80;;;;;;5001354;28;20171;-82
2023/06/01 05:18:34;;;;;;;10.13;4.25;;;12.10;81.90;;;;;;4984977;28;20504;-83
2023/06/01 05:21:01;;;;;;;12.63;4.13;;;12.20;81.80;;;;;;5001493;28;20038;-84
2023/06/01 05:23:27;;;;;;;9.00;4.43;;;12.20;81.70;;;;;;5017810;28;20139;-83
2023/06/01 05:25:59;;;;;;;7.15;4.25;;;12.20;81.70;;;;;;5001145;28;20041;-83
2023/06/01 05:28:25;;;;;;;14.25;5.15;;;12.20;81.80;;;;;;4985860;28;20045;-83
2023/06/01 05:30:51;;;;;;;12.60;4.95;;;12.20;81.80;;;;;;4985219;28;20045;-83
2023/06/01 05:33:16;;;;;;;9.57;4.30;;;12.30;81.70;;;;;;5001078;28;20513;-84
2023/06/01 05:35:42;;;;;;;8.52;4.53;;;12.20;81.80;;;;;;5000869;28;20048;-82
2023/06/01 05:38:08;;;;;;;9.57;5.75;;;12.30;81.80;;;;;;4968553;28;20045;-84
2023/06/01 05:40:35;;;;;;;10.68;5.10;;;12.30;81.80;;;;;;5000933;28;20041;-82
2023/06/01 05:43:01;;;;;;;13.43;5.15;;;12.30;82.00;;;;;;4985339;28;20041;-83
2023/06/01 05:45:27;;;;;;;10.48;5.25;;;12.30;82.00;;;;;;4984688;28;20111;-82
2023/06/01 05:47:53;;;;;;;10.60;5.18;;;12.30;82.10;;;;;;4985127;28;20128;-83
2023/06/01 05:50:19;;;;;;;7.82;4.50;;;12.30;82.10;;;;;;5040457;28;20107;-83
2023/06/01 05:52:45;;;;;;;11.02;5.22;;;12.40;82.30;;;;;;5006741;28;20049;-83
2023/06/01 05:55:11;;;;;;;8.73;4.15;;;12.40;82.00;;;;;;5010094;28;20024;-83
2023/06/01 05:57:36;;;;;;;11.63;5.43;;;12.40;81.80;;;;;;5025382;28;20045;-83
2023/06/01 06:00:07;;;;;;;11.77;4.07;;;12.40;81.20;;;;;;5026722;28;20034;-82
2023/06/01 06:02:33;;;;;;;8.10;3.88;;;12.40;81.10;;;;;;5010914;28;20025;-84
2023/06/01 06:04:59;;;;;;;12.73;4.70;;;12.50;81.10;;;;;;5009567;28;20041;-83
2023/06/01 06:07:25;;;;;;;11.25;4.63;;;12.40;81.00;;;;;;5025428;28;20022;-83
2023/06/01 06:09:50;;;;;;;10.38;4.40;;;12.50;81.10;;;;;;4980867;28;20052;-83
2023/06/01 06:12:16;;;;;;;9.07;4.05;;;12.50;81.20;;;;;;4995393;28;20064;-82
2023/06/01 06:14:42;;;;;;;7.90;4.80;;;12.50;80.80;;;;;;5051660;28;20044;-81
2023/06/01 06:17:08;;;;;;;10.15;4.93;;;12.50;80.60;;;;;;5051335;28;20079;-82
2023/06/01 06:19:34;;;;;;;11.30;4.90;;;12.50;80.60;;;;;;5035288;28;20047;-82
2023/06/01 06:21:59;;;;;;;13.48;5.30;;;12.60;80.50;;;;;;5023014;28;20037;-82
2023/06/01 06:24:25;;;;;;;10.05;4.35;;;12.60;80.70;;;;;;5052810;28;20040;-82
2023/06/01 06:26:51;;;;;;;9.77;3.65;;;12.60;80.60;;;;;;5052539;28;20033;-83
2023/06/01 06:29:16;;;;;;;10.38;4.03;;;12.60;80.50;;;;;;5052753;28;20041;-82
2023/06/01 06:31:42;;;;;;;6.18;3.55;;;12.60;80.50;;;;;;5036348;28;20049;-82
2023/06/01 06:34:09;;;;;;;9.75;4.32;;;12.60;80.30;;;;;;5003429;28;20607;-81
2023/06/01 06:36:34;;;;;;;10.10;4.43;;;12.60;80.10;;;;;;5019787;28;20033;-83
2023/06/01 06:39:00;;;;;;;7.82;4.30;;;12.70;80.10;;;;;;5052489;28;20393;-81
2023/06/01 06:41:26;;;;;;;11.60;4.05;;;12.70;80.00;;;;;;5019550;28;20091;-81
2023/06/01 06:43:51;;;;;;;10.18;4.32;;;12.70;80.20;;;;;;4986881;28;20037;-82
2023/06/01 06:46:17;;;;;;;8.13;3.58;;;12.70;80.10;;;;;;5052368;28;20037;-82
2023/06/01 06:48:42;;;;;;;8.90;3.40;;;12.70;80.10;;;;;;5052302;28;20087;-82
2023/06/01 06:51:08;;;;;;;6.40;3.30;;;12.70;79.80;;;;;;5052585;28;20158;-82
2023/06/01 06:53:34;;;;;;;9.68;3.88;;;12.70;79.80;;;;;;5003375;28;20036;-81
2023/06/01 06:55:59;;;;;;;6.22;3.75;;;12.80;79.80;;;;;;5052411;28;20081;-83
2023/06/01 06:58:25;;;;;;;7.97;3.67;;;12.80;79.80;;;;;;5019225;28;20492;-82
2023/06/01 07:00:51;;;;;;;8.48;3.90;;;12.80;79.80;;;;;;5002818;28;20102;-83
2023/06/01 07:03:17;;;;;;;9.38;4.32;;;12.80;80.10;;;;;;5052152;28;20141;-81
2023/06/01 07:05:45;;;;;;;6.93;4.10;;;12.90;80.30;;;;;;5051780;28;20045;-82
2023/06/01 07:08:11;;;;;;;8.65;3.50;;;12.90;80.60;;;;;;5035709;28;20052;-82
2023/06/01 07:10:36;;;;;;;8.60;3.35;;;12.90;80.60;;;;;;5052333;28;20504;-82
2023/06/01 07:13:02;;;;;;;6.35;2.35;;;12.90;80.70;;;;;;5015075;28;20073;-81
2023/06/01 07:15:28;;;;;;;7.70;2.95;;;13.00;80.50;;;;;;5030994;28;20044;-81
2023/06/01 07:17:53;;;;;;;5.32;3.38;;;13.00;80.40;;;;;;5035190;28;20123;-82
2023/06/01 07:20:19;;;;;;;7.03;3.00;;;13.00;80.60;;;;;;5018915;28;20041;-81
2023/06/01 07:22:45;;;;;;;5.00;2.47;;;13.00;80.60;;;;;;5002699;28;20076;-82
2023/06/01 07:25:12;;;;;;;10.50;3.42;;;13.00;80.70;;;;;;5035310;28;20041;-82
2023/06/01 07:27:43;;;;;;;7.07;2.95;;;13.00;80.90;;;;;;5019314;28;20116;-82
2023/06/01 07:30:10;;;;;;;4.75;2.38;;;13.00;80.70;;;;;;5004183;28;20033;-82
2023/06/01 07:32:36;;;;;;;6.88;2.50;;;13.00;80.70;;;;;;5035283;28;20045;-82
2023/06/01 07:35:02;;;;;;;3.38;2.45;;;13.00;80.50;;;;;;5035362;28;20037;-82
2023/06/01 07:37:28;;;;;;;6.72;2.53;;;13.00;80.70;;;;;;5035294;28;20465;-82
2023/06/01 07:39:54;;;;;;;6.82;3.83;;;13.00;80.80;;;;;;5002463;28;20099;-82
2023/06/01 07:42:20;;;;;;;7.45;2.63;;;13.00;81.20;;;;;;5035157;28;20033;-82
2023/06/01 07:44:46;;;;;;;6.90;2.75;;;13.00;81.90;;;;;;5002870;28;20443;-82
2023/06/01 07:47:12;;;;;;;4.75;2.38;;;13.00;82.70;;;;;;5035396;28;20066;-83
2023/06/01 07:49:38;;;;;;;7.35;2.40;;;13.00;83.40;;;;;;5018783;28;20476;-83
2023/06/01 07:52:05;;;;;;;6.22;3.13;;;12.90;83.70;;;;;;5018616;28;20103;-81
2023/06/01 07:54:32;;;;;;;6.93;3.95;;;12.90;84.70;;;;;;5035180;28;20048;-82
2023/06/01 07:56:58;;;;;;;5.88;2.83;;;12.90;85.20;;;;;;5034920;28;20045;-82
2023/06/01 07:59:24;;;;;;;3.75;2.58;;;12.90;85.70;;;;;;5035032;28;20106;-83
2023/06/01 08:01:51;;;;;;;4.97;2.15;;;12.90;85.50;;;;;;5018568;28;20120;-82
2023/06/01 08:04:20;;;;;;;5.30;2.47;;;12.80;85.40;;;;;;5018721;28;20041;-82
2023/06/01 08:06:52;;;;;;;4.43;2.60;;;12.80;84.90;;;;;;5002643;28;20401;-82
2023/06/01 08:09:20;;;;;;;7.07;2.90;;;12.90;84.30;;;;;;5019415;28;20045;-83
2023/06/01 08:11:46;;;;;;;7.65;3.03;;;12.90;84.00;;;;;;5018889;28;20037;-83
2023/06/01 08:14:11;;;;;;;6.85;3.20;;;12.90;83.60;;;;;;5034792;28;20184;-83
2023/06/01 08:16:37;;;;;;;6.80;3.78;;;13.00;83.10;;;;;;5051392;28;20045;-83
2023/06/01 08:19:03;;;;;;;8.50;3.42;;;13.00;82.70;;;;;;5034749;28;20041;-82
2023/06/01 08:21:28;;;;;;;7.15;3.58;;;13.00;82.60;;;;;;5002078;28;20041;-81
2023/06/01 08:23:54;;;;;;;6.88;3.83;;;13.00;82.80;;;;;;5051421;28;20401;-83
2023/06/01 08:26:21;;;;;;;11.30;3.50;;;13.00;82.60;;;;;;5053720;28;20068;-82
2023/06/01 08:28:51;;;;;;;7.95;3.05;;;13.00;82.30;;;;;;5038289;28;20106;-82
2023/06/01 08:31:23;;;;;;;8.70;3.20;;;13.00;82.00;;;;;;5006659;28;20568;-82
2023/06/01 08:33:50;;;;;;;9.80;3.47;;;13.00;82.10;;;;;;5038546;28;20447;-81
2023/06/01 08:36:17;;;;;;;9.73;3.55;;;13.10;81.70;;;;;;5021996;28;20045;-83
2023/06/01 08:38:43;;;;;;;8.95;3.97;;;13.10;81.60;;;;;;5038098;28;20432;-82
2023/06/01 08:41:25;;;;;;;7.78;3.88;;;13.10;81.60;;;;;;5038114;28;20041;-81
2023/06/01 08:43:58;;;;;;;10.55;3.53;;;13.20;81.20;;;;;;5021553;28;20033;-82
2023/06/01 08:46:25;;;;;;;9.02;3.70;;;13.20;80.50;;;;;;5037920;28;20037;-82
2023/06/01 08:48:55;;;;;;;8.48;4.00;;;13.20;80.10;;;;;;5037929;28;20081;-83
2023/06/01 08:51:23;;;;;;;9.40;3.30;;;13.20;79.70;;;;;;5037649;28;20041;-82
2023/06/01 08:53:50;;;;;;;11.02;4.35;;;13.20;79.60;;;;;;5037695;28;20037;-82
2023/06/01 08:56:15;;;;;;;11.55;4.65;;;13.30;79.40;;;;;;5037851;28;20115;-83
2023/06/01 08:58:43;;;;;;;11.23;4.25;;;13.30;79.40;;;;;;5021059;28;20037;-83
2023/06/01 09:01:09;;;;;;;9.13;3.63;;;13.30;79.20;;;;;;5037869;28;20103;-83
2023/06/01 09:03:35;;;;;;;7.47;3.55;;;13.30;79.30;;;;;;5021295;28;20044;-82
2023/06/01 09:06:01;;;;;;;10.23;3.70;;;13.40;79.20;;;;;;5020871;28;20409;-81
2023/06/01 09:08:26;;;;;;;12.43;3.95;;;13.50;78.90;;;;;;5005046;28;20114;-81
2023/06/01 09:10:52;;;;;;;11.68;4.22;;;13.50;78.80;;;;;;5037472;28;20489;-82
2023/06/01 09:13:34;;;;;;;13.70;4.10;;;13.50;78.70;;;;;;5037472;28;20033;-82
2023/06/01 09:16:00;;;;;;;8.57;4.18;;;13.50;78.50;;;;;;5037779;28;20045;-82
2023/06/01 09:18:26;;;;;;;11.25;4.70;;;13.50;78.50;;;;;;5037293;28;20041;-83
2023/06/01 09:20:53;;;;;;;7.97;3.63;;;13.50;78.80;;;;;;5037304;28;20037;-81
2023/06/01 09:23:26;;;;;;;13.63;3.60;;;13.50;78.80;;;;;;5037232;28;20036;-83
2023/06/01 09:26:09;;;;;;;8.13;4.50;;;13.60;78.60;;;;;;5037245;28;20098;-82
2023/06/01 09:28:56;;;;;;;7.72;3.03;;;13.60;78.40;;;;;;5037108;28;20037;-83
2023/06/01 09:31:42;;;;;;;8.63;2.92;;;13.70;78.30;;;;;;5037297;28;20110;-83
2023/06/01 09:34:21;;;;;;;9.23;3.20;;;13.80;77.70;;;;;;5021944;28;20542;-82
2023/06/01 09:36:51;;;;;;;8.18;3.67;;;13.80;77.30;;;;;;5036575;28;20052;-83
2023/06/01 09:39:19;;;;;;;11.38;4.35;;;13.70;77.50;;;;;;5031472;28;20049;-83
2023/06/01 09:41:59;;;;;;;9.07;4.03;;;13.80;77.60;;;;;;5034111;28;20090;-82
2023/06/01 09:44:33;;;;;;;9.35;3.75;;;13.80;77.70;;;;;;5032828;28;20521;-82
2023/06/01 09:47:03;;;;;;;9.45;4.20;;;13.90;78.00;;;;;;5034635;28;20048;-83
2023/06/01 09:49:43;;;;;;;10.18;4.18;;;13.90;77.70;;;;;;5032200;28;20040;-81
2023/06/01 09:52:14;;;;;;;11.55;4.15;;;13.90;78.00;;;;;;5034396;28;20410;-82
2023/06/01 09:54:45;;;;;;;9.70;4.15;;;13.90;77.90;;;;;;5014873;28;20770;-81
2023/06/01 09:57:12;;;;;;;12.15;4.60;;;13.90;78.10;;;;;;5005147;28;20041;-82
2023/06/01 09:59:43;;;;;;;12.50;3.70;;;13.90;78.00;;;;;;5033130;28;20079;-81
2023/06/01 10:02:16;;;;;;;13.48;4.30;;;13.90;78.00;;;;;;5034433;28;20040;-83
2023/06/01 10:04:47;;;;;;;10.15;3.72;;;13.90;78.20;;;;;;5014439;28;20047;-83
2023/06/01 10:07:13;;;;;;;10.82;4.10;;;13.90;78.20;;;;;;5016831;28;20379;-83
2023/06/01 10:09:41;;;;;;;7.97;3.60;;;13.90;78.30;;;;;;5015056;28;20057;-82
2023/06/01 10:12:08;;;;;;;9.65;3.75;;;13.90;78.50;;;;;;5034136;28;20128;-82
2023/06/01 10:14:38;;;;;;;10.95;3.28;;;14.00;77.90;;;;;;5034421;28;20481;-81
2023/06/01 10:17:04;;;;;;;13.65;5.15;;;13.90;77.90;;;;;;5034209;28;20367;-81
2023/06/01 10:19:30;;;;;;;9.95;4.10;;;13.90;78.10;;;;;;5017105;28;20033;-83
2023/06/01 10:21:59;;;;;;;11.25;3.55;;;14.00;77.70;;;;;;5014350;28;20521;-82
2023/06/01 10:24:26;;;;;;;15.40;5.40;;;14.00;77.70;;;;;;4993614;28;20040;-82
2023/06/01 10:27:10;;;;;;;13.45;3.95;;;14.00;77.70;;;;;;5008454;28;20033;-83
2023/06/01 10:29:37;;;;;;;10.88;3.70;;;14.00;77.50;;;;;;5025907;28;20068;-81
2023/06/01 10:32:03;;;;;;;12.43;4.05;;;14.00;77.50;;;;;;5017596;28;20041;-81
2023/06/01 10:34:46;;;;;;;9.80;3.58;;;14.10;77.70;;;;;;5017269;28;20040;-84
2023/06/01 10:37:16;;;;;;;12.40;4.28;;;14.00;77.70;;;;;;5033512;28;20821;-83
2023/06/01 10:39:42;;;;;;;10.48;3.58;;;14.10;77.60;;;;;;5032563;28;20037;-81
2023/06/01 10:42:14;;;;;;;11.35;4.72;;;14.10;77.80;;;;;;5033312;28;20094;-82
2023/06/01 10:44:42;;;;;;;13.98;4.10;;;14.20;77.70;;;;;;5033434;28;20049;-82
2023/06/01 10:47:11;;;;;;;9.00;3.95;;;14.20;77.30;;;;;;5033315;28;20041;-83
2023/06/01 10:49:49;;;;;;;10.15;4.38;;;14.10;77.10;;;;;;5012200;28;20068;-82
2023/06/01 10:52:47;;;;;;;7.85;3.67;;;14.20;77.10;;;;;;5012321;28;20045;-83
2023/06/01 10:55:13;;;;;;;7.68;4.13;;;14.20;76.90;;;;;;4997681;28;20110;-82
2023/06/01 10:57:44;;;;;;;15.38;5.35;;;14.30;76.70;;;;;;5033454;28;20485;-83
2023/06/01 11:00:26;;;;;;;8.98;4.28;;;14.30;76.70;;;;;;5013388;28;20723;-82
2023/06/01 11:03:03;;;;;;;12.40;4.30;;;14.50;76.60;;;;;;5029167;28;20337;-82
2023/06/01 11:05:37;;;;;;;10.77;4.60;;;14.50;76.70;;;;;;5013803;28;20037;-82
2023/06/01 11:08:23;;;;;;;8.23;4.35;;;14.60;76.40;;;;;;5015101;28;20094;-83
2023/06/01 11:10:52;;;;;;;13.98;4.22;;;14.60;76.60;;;;;;4992620;28;20049;-82
2023/06/01 11:13:25;;;;;;;10.23;4.25;;;14.60;76.60;;;;;;5018774;28;20040;-83
2023/06/01 11:16:26;;;;;;;15.02;4.20;;;14.70;76.60;;;;;;5035491;28;20374;-84
2023/06/01 11:18:59;;;;;;;8.15;4.10;;;14.70;76.30;;;;;;5051846;28;20092;-83
2023/06/01 11:21:26;;;;;;;13.40;3.53;;;14.60;76.40;;;;;;5035327;28;20482;-84
2023/06/01 11:23:54;;;;;;;10.70;3.80;;;14.60;76.50;;;;;;5035369;28;20562;-83
2023/06/01 11:26:24;;;;;;;10.98;3.63;;;14.60;76.60;;;;;;5035329;28;20052;-84
2023/06/01 11:28:51;;;;;;;13.32;3.30;;;14.60;76.70;;;;;;5035490;28;20044;-83
2023/06/01 11:31:19;;;;;;;6.55;3.22;;;14.60;76.30;;;;;;5002565;28;20102;-83
2023/06/01 11:33:53;;;;;;;8.63;3.03;;;14.60;76.30;;;;;;5035273;28;20045;-84
2023/06/01 11:36:25;;;;;;;;;;;14.60;76.40;;;;;;5052557;28;20049;-84
2023/06/01 11:38:52;;;;;;;7.30;2.95;;;14.60;76.30;;;;;;5035238;28;19916;-85
2023/06/01 11:41:23;;;;;;;4.25;1.80;;;14.60;75.30;;;;;;5019085;28;20132;-84
2023/06/01 11:43:58;;;;;;;6.43;2.25;;;14.60;75.30;;;;;;5034744;28;20559;-82
2023/06/01 11:46:26;;;;;;;5.93;2.28;;;14.60;75.30;;;;;;5034726;28;20072;-82
2023/06/01 11:49:05;;;;;;;7.22;2.60;;;14.50;74.70;;;;;;5034287;28;20049;-84
2023/06/01 11:51:33;;;;;;;6.47;2.75;;;14.60;74.30;;;;;;5042469;28;20120;-83
2023/06/01 11:54:03;;;;;;;7.18;3.22;;;14.50;74.20;;;;;;5034769;28;20041;-82
2023/06/01 11:56:34;;;;;;;3.53;2.33;;;14.50;74.30;;;;;;5051652;28;20123;-84
2023/06/01 11:59:11;;;;;;;5.07;2.40;;;14.50;74.30;;;;;;5035429;28;20037;-84
2023/06/01 12:01:42;;;;;;;6.30;2.60;;;14.50;73.70;;;;;;5023592;28;20044;-85
2023/06/01 12:04:15;;;;;;;6.07;2.78;;;14.50;73.70;;;;;;5038872;28;20044;-82
2023/06/01 12:06:42;;;;;;;8.03;2.93;;;14.50;73.20;;;;;;5022286;28;20083;-85
2023/06/01 12:09:10;;;;;;;5.88;2.45;;;14.50;73.20;;;;;;5038735;28;20099;-84
2023/06/01 12:11:37;;;;;;;4.65;2.58;;;14.60;73.70;;;;;;5022409;28;20049;-84
2023/06/01 12:14:05;;;;;;;7.72;3.15;;;14.60;72.90;;;;;;5038830;28;20374;-83
2023/06/01 12:16:54;;;;;;;7.63;3.35;;;14.60;72.90;;;;;;5038690;28;20040;-80
2023/06/01 12:19:21;;;;;;;11.35;2.85;;;14.60;72.90;;;;;;5038826;28;20499;-81
2023/06/01 12:21:51;;;;;;;7.13;2.65;;;14.50;73.20;;;;;;5038679;28;20141;-82
2023/06/01 12:24:37;;;;;;;10.68;3.08;;;14.50;73.10;;;;;;5021957;28;20040;-82
2023/06/01 12:27:16;;;;;;;14.65;3.10;;;14.50;73.10;;;;;;5013760;28;20068;-82
2023/06/01 12:29:51;;;;;;;9.93;3.53;;;14.50;73.70;;;;;;5035523;28;20095;-83
2023/06/01 12:32:17;;;;;;;6.75;2.90;;;14.50;73.90;;;;;;5020308;28;20044;-83
2023/06/01 12:34:47;;;;;;;7.18;2.97;;;14.60;73.80;;;;;;5035704;28;20048;-82
2023/06/01 12:37:18;;;;;;;9.93;3.10;;;14.60;73.40;;;;;;5035904;28;20025;-82
2023/06/01 12:39:55;;;;;;;8.55;3.00;;;14.60;72.90;;;;;;5035983;28;20072;-81
2023/06/01 12:42:38;;;;;;;7.43;2.80;;;14.60;72.50;;;;;;5029744;28;20037;-81
2023/06/01 12:45:08;;;;;;;6.93;3.25;;;14.50;72.80;;;;;;5015429;28;20045;-82
2023/06/01 12:47:38;;;;;;;9.07;3.70;;;14.50;73.50;;;;;;5015323;28;20512;-84
2023/06/01 12:50:11;;;;;;;12.93;2.75;;;14.50;73.70;;;;;;5036148;28;20501;-82
2023/06/01 12:52:43;;;;;;;12.68;3.63;;;14.40;73.80;;;;;;5035133;28;20044;-81